sensor_id;sensor_type;location;lat;lon;timestamp;P1;durP1;ratioP1;P2;durP2;ratioP2
2205;SDS011;1109;48.020;11.478;2022-07-10T00:00:41;3.60;;;3.03;;
2205;SDS011;1109;48.020;11.478;2022-07-10T00:03:08;3.77;;;3.40;;
2205;SDS011;1109;48.020;11.478;2022-07-10T00:05:35;2.80;;;2.60;;
2205;SDS011;1109;48.020;11.478;2022-07-10T00:08:02;3.80;;;3.50;;
2205;SDS011;1109;48.020;11.478;2022-07-10T00:10:29;5.43;;;3.00;;
2205;SDS011;1109;48.020;11.478;2022-07-10T00:12:56;3.10;;;2.90;;
2205;SDS011;1109;48.020;11.478;2022-07-10T00:15:23;3.50;;;3.20;;
2205;SDS011;1109;48.020;11.478;2022-07-10T00:17:50;3.80;;;3.50;;
2205;SDS011;1109;48.020;11.478;2022-07-10T00:20:17;2.60;;;2.40;;
2205;SDS011;1109;48.020;11.478;2022-07-10T00:22:44;5.27;;;3.23;;
2205;SDS011;1109;48.020;11.478;2022-07-10T00:25:11;2.70;;;2.50;;
2205;SDS011;1109;48.020;11.478;2022-07-10T00:27:40;3.63;;;3.33;;
2205;SDS011;1109;48.020;11.478;2022-07-10T00:30:08;4.90;;;3.40;;
2205;SDS011;1109;48.020;11.478;2022-07-10T00:32:36;3.60;;;3.40;;
2205;SDS011;1109;48.020;11.478;2022-07-10T00:35:04;4.33;;;3.87;;
2205;SDS011;1109;48.020;11.478;2022-07-10T00:37:32;3.60;;;3.30;;
2205;SDS011;1109;48.020;11.478;2022-07-10T00:39:59;6.10;;;3.80;;
2205;SDS011;1109;48.020;11.478;2022-07-10T00:42:26;4.07;;;3.87;;
2205;SDS011;1109;48.020;11.478;2022-07-10T00:44:53;4.30;;;3.90;;
2205;SDS011;1109;48.020;11.478;2022-07-10T00:47:20;3.87;;;3.57;;
2205;SDS011;1109;48.020;11.478;2022-07-10T00:49:47;4.93;;;4.20;;
2205;SDS011;1109;48.020;11.478;2022-07-10T00:52:15;5.63;;;5.23;;
2205;SDS011;1109;48.020;11.478;2022-07-10T00:54:45;5.70;;;5.13;;
2205;SDS011;1109;48.020;11.478;2022-07-10T00:57:13;9.83;;;5.17;;
2205;SDS011;1109;48.020;11.478;2022-07-10T00:59:41;6.20;;;5.50;;
2205;SDS011;1109;48.020;11.478;2022-07-10T01:02:08;6.43;;;5.90;;
2205;SDS011;1109;48.020;11.478;2022-07-10T01:04:36;7.07;;;6.50;;
2205;SDS011;1109;48.020;11.478;2022-07-10T01:07:04;8.00;;;7.40;;
2205;SDS011;1109;48.020;11.478;2022-07-10T01:09:32;7.93;;;7.23;;
2205;SDS011;1109;48.020;11.478;2022-07-10T01:12:00;8.13;;;7.37;;
2205;SDS011;1109;48.020;11.478;2022-07-10T01:14:28;9.43;;;6.93;;
2205;SDS011;1109;48.020;11.478;2022-07-10T01:16:57;8.67;;;7.87;;
2205;SDS011;1109;48.020;11.478;2022-07-10T01:19:25;9.90;;;8.50;;
2205;SDS011;1109;48.020;11.478;2022-07-10T01:21:52;7.97;;;7.37;;
2205;SDS011;1109;48.020;11.478;2022-07-10T01:24:19;9.40;;;8.70;;
2205;SDS011;1109;48.020;11.478;2022-07-10T01:26:46;9.93;;;8.90;;
2205;SDS011;1109;48.020;11.478;2022-07-10T01:29:13;8.67;;;7.87;;
2205;SDS011;1109;48.020;11.478;2022-07-10T01:31:39;9.90;;;8.90;;
2205;SDS011;1109;48.020;11.478;2022-07-10T01:34:08;8.97;;;8.27;;
2205;SDS011;1109;48.020;11.478;2022-07-10T01:36:36;8.80;;;8.10;;
2205;SDS011;1109;48.020;11.478;2022-07-10T01:39:04;9.83;;;9.03;;
2205;SDS011;1109;48.020;11.478;2022-07-10T01:41:32;9.67;;;8.73;;
2205;SDS011;1109;48.020;11.478;2022-07-10T01:43:59;17.47;;;9.70;;
2205;SDS011;1109;48.020;11.478;2022-07-10T01:46:27;8.80;;;8.00;;
2205;SDS011;1109;48.020;11.478;2022-07-10T01:48:54;8.47;;;7.77;;
2205;SDS011;1109;48.020;11.478;2022-07-10T01:51:21;9.80;;;8.93;;
2205;SDS011;1109;48.020;11.478;2022-07-10T01:53:49;10.23;;;9.33;;
2205;SDS011;1109;48.020;11.478;2022-07-10T01:56:16;10.67;;;9.77;;
2205;SDS011;1109;48.020;11.478;2022-07-10T01:58:43;10.53;;;9.57;;
2205;SDS011;1109;48.020;11.478;2022-07-10T02:01:10;10.80;;;9.90;;
2205;SDS011;1109;48.020;11.478;2022-07-10T02:03:38;10.23;;;9.33;;
2205;SDS011;1109;48.020;11.478;2022-07-10T02:06:23;10.90;;;10.00;;
2205;SDS011;1109;48.020;11.478;2022-07-10T02:08:51;11.10;;;10.00;;
2205;SDS011;1109;48.020;11.478;2022-07-10T02:11:18;9.80;;;9.00;;
2205;SDS011;1109;48.020;11.478;2022-07-10T02:13:45;10.97;;;9.87;;
2205;SDS011;1109;48.020;11.478;2022-07-10T02:16:12;11.43;;;10.33;;
2205;SDS011;1109;48.020;11.478;2022-07-10T02:18:39;10.97;;;10.07;;
2205;SDS011;1109;48.020;11.478;2022-07-10T02:21:08;11.40;;;10.40;;
2205;SDS011;1109;48.020;11.478;2022-07-10T02:23:35;10.43;;;9.53;;
2205;SDS011;1109;48.020;11.478;2022-07-10T02:26:02;11.57;;;10.67;;
2205;SDS011;1109;48.020;11.478;2022-07-10T02:28:29;11.10;;;10.20;;
2205;SDS011;1109;48.020;11.478;2022-07-10T02:30:56;11.60;;;10.43;;
2205;SDS011;1109;48.020;11.478;2022-07-10T02:33:23;10.87;;;9.80;;
2205;SDS011;1109;48.020;11.478;2022-07-10T02:35:50;11.53;;;9.67;;
2205;SDS011;1109;48.020;11.478;2022-07-10T02:38:17;11.80;;;10.70;;
2205;SDS011;1109;48.020;11.478;2022-07-10T02:40:44;11.03;;;10.10;;
2205;SDS011;1109;48.020;11.478;2022-07-10T02:43:10;12.63;;;11.53;;
2205;SDS011;1109;48.020;11.478;2022-07-10T02:45:37;11.37;;;10.37;;
2205;SDS011;1109;48.020;11.478;2022-07-10T02:48:11;11.80;;;10.80;;
2205;SDS011;1109;48.020;11.478;2022-07-10T02:50:38;11.77;;;10.57;;
2205;SDS011;1109;48.020;11.478;2022-07-10T02:53:05;11.53;;;10.50;;
2205;SDS011;1109;48.020;11.478;2022-07-10T02:55:32;11.93;;;10.93;;
2205;SDS011;1109;48.020;11.478;2022-07-10T02:58:00;13.23;;;12.03;;
2205;SDS011;1109;48.020;11.478;2022-07-10T03:00:27;13.50;;;12.07;;
2205;SDS011;1109;48.020;11.478;2022-07-10T03:02:54;11.77;;;10.73;;
2205;SDS011;1109;48.020;11.478;2022-07-10T03:05:22;11.33;;;10.43;;
2205;SDS011;1109;48.020;11.478;2022-07-10T03:07:49;13.77;;;10.60;;
2205;SDS011;1109;48.020;11.478;2022-07-10T03:10:16;1999.90;;;999.90;;
2205;SDS011;1109;48.020;11.478;2022-07-10T03:12:44;1999.90;;;999.90;;
2205;SDS011;1109;48.020;11.478;2022-07-10T03:15:11;1999.90;;;999.90;;
2205;SDS011;1109;48.020;11.478;2022-07-10T03:17:37;159.07;;;142.33;;
2205;SDS011;1109;48.020;11.478;2022-07-10T03:20:06;1999.90;;;999.90;;
2205;SDS011;1109;48.020;11.478;2022-07-10T03:22:35;1458.23;;;769.23;;
2205;SDS011;1109;48.020;11.478;2022-07-10T03:25:03;274.13;;;104.77;;
2205;SDS011;1109;48.020;11.478;2022-07-10T03:27:31;37.17;;;6.97;;
2205;SDS011;1109;48.020;11.478;2022-07-10T03:29:58;37.70;;;5.37;;
2205;SDS011;1109;48.020;11.478;2022-07-10T03:32:25;1999.90;;;999.90;;
2205;SDS011;1109;48.020;11.478;2022-07-10T03:34:52;1999.90;;;999.90;;
2205;SDS011;1109;48.020;11.478;2022-07-10T03:37:21;1999.90;;;999.90;;
2205;SDS011;1109;48.020;11.478;2022-07-10T03:39:48;1999.90;;;999.90;;
2205;SDS011;1109;48.020;11.478;2022-07-10T03:42:14;1999.90;;;999.90;;
2205;SDS011;1109;48.020;11.478;2022-07-10T03:44:41;1999.90;;;999.90;;
2205;SDS011;1109;48.020;11.478;2022-07-10T03:47:08;1999.90;;;999.90;;
2205;SDS011;1109;48.020;11.478;2022-07-10T03:49:36;1999.90;;;999.90;;
2205;SDS011;1109;48.020;11.478;2022-07-10T03:52:05;1999.90;;;999.90;;
2205;SDS011;1109;48.020;11.478;2022-07-10T03:54:32;1999.90;;;999.90;;
2205;SDS011;1109;48.020;11.478;2022-07-10T03:56:59;1999.90;;;999.90;;
2205;SDS011;1109;48.020;11.478;2022-07-10T03:59:45;1999.90;;;999.90;;
2205;SDS011;1109;48.020;11.478;2022-07-10T04:02:12;1999.90;;;999.90;;
2205;SDS011;1109;48.020;11.478;2022-07-10T04:04:39;1999.90;;;999.90;;
2205;SDS011;1109;48.020;11.478;2022-07-10T04:07:06;1999.90;;;999.90;;
2205;SDS011;1109;48.020;11.478;2022-07-10T04:09:33;1999.90;;;999.90;;
2205;SDS011;1109;48.020;11.478;2022-07-10T04:12:00;1999.90;;;999.90;;
2205;SDS011;1109;48.020;11.478;2022-07-10T04:14:27;1999.90;;;999.90;;
2205;SDS011;1109;48.020;11.478;2022-07-10T04:16:54;1999.90;;;999.90;;
2205;SDS011;1109;48.020;11.478;2022-07-10T04:19:21;1999.90;;;999.90;;
2205;SDS011;1109;48.020;11.478;2022-07-10T04:21:48;187.03;;;84.13;;
2205;SDS011;1109;48.020;11.478;2022-07-10T04:24:15;11.23;;;10.27;;
2205;SDS011;1109;48.020;11.478;2022-07-10T04:26:42;5.23;;;4.30;;
2205;SDS011;1109;48.020;11.478;2022-07-10T04:29:10;5.60;;;4.30;;
2205;SDS011;1109;48.020;11.478;2022-07-10T04:31:37;10.03;;;6.33;;
2205;SDS011;1109;48.020;11.478;2022-07-10T04:34:04;5.27;;;4.87;;
2205;SDS011;1109;48.020;11.478;2022-07-10T04:36:31;3.87;;;3.57;;
2205;SDS011;1109;48.020;11.478;2022-07-10T04:38:58;3.97;;;3.53;;
2205;SDS011;1109;48.020;11.478;2022-07-10T04:41:25;6.37;;;4.47;;
2205;SDS011;1109;48.020;11.478;2022-07-10T04:43:53;4.50;;;3.87;;
2205;SDS011;1109;48.020;11.478;2022-07-10T04:46:19;4.37;;;4.03;;
2205;SDS011;1109;48.020;11.478;2022-07-10T04:48:46;4.83;;;4.43;;
2205;SDS011;1109;48.020;11.478;2022-07-10T04:51:13;4.77;;;4.07;;
2205;SDS011;1109;48.020;11.478;2022-07-10T04:53:40;5.03;;;4.63;;
2205;SDS011;1109;48.020;11.478;2022-07-10T04:56:08;8.80;;;6.40;;
2205;SDS011;1109;48.020;11.478;2022-07-10T04:58:35;5.80;;;4.80;;
2205;SDS011;1109;48.020;11.478;2022-07-10T05:01:02;5.57;;;5.07;;
2205;SDS011;1109;48.020;11.478;2022-07-10T05:03:29;5.73;;;4.60;;
2205;SDS011;1109;48.020;11.478;2022-07-10T05:05:56;6.23;;;5.63;;
2205;SDS011;1109;48.020;11.478;2022-07-10T05:08:23;6.13;;;5.60;;
2205;SDS011;1109;48.020;11.478;2022-07-10T05:10:50;8.53;;;7.50;;
2205;SDS011;1109;48.020;11.478;2022-07-10T05:13:17;8.53;;;7.73;;
2205;SDS011;1109;48.020;11.478;2022-07-10T05:15:47;8.40;;;7.60;;
2205;SDS011;1109;48.020;11.478;2022-07-10T05:18:14;8.87;;;7.97;;
2205;SDS011;1109;48.020;11.478;2022-07-10T05:20:41;8.40;;;7.60;;
2205;SDS011;1109;48.020;11.478;2022-07-10T05:23:10;10.50;;;7.07;;
2205;SDS011;1109;48.020;11.478;2022-07-10T05:25:37;6.40;;;5.80;;
2205;SDS011;1109;48.020;11.478;2022-07-10T05:28:04;6.20;;;3.57;;
2205;SDS011;1109;48.020;11.478;2022-07-10T05:30:32;9.50;;;8.60;;
2205;SDS011;1109;48.020;11.478;2022-07-10T05:32:59;8.50;;;7.60;;
2205;SDS011;1109;48.020;11.478;2022-07-10T05:35:26;9.50;;;8.50;;
2205;SDS011;1109;48.020;11.478;2022-07-10T05:37:53;9.10;;;8.30;;
2205;SDS011;1109;48.020;11.478;2022-07-10T05:40:21;9.77;;;8.00;;
2205;SDS011;1109;48.020;11.478;2022-07-10T05:42:48;9.90;;;8.53;;
2205;SDS011;1109;48.020;11.478;2022-07-10T05:45:15;10.87;;;9.77;;
2205;SDS011;1109;48.020;11.478;2022-07-10T05:47:44;9.63;;;8.63;;
2205;SDS011;1109;48.020;11.478;2022-07-10T05:50:11;10.60;;;9.60;;
2205;SDS011;1109;48.020;11.478;2022-07-10T05:52:38;11.40;;;9.10;;
2205;SDS011;1109;48.020;11.478;2022-07-10T05:55:06;9.80;;;8.80;;
2205;SDS011;1109;48.020;11.478;2022-07-10T05:57:34;12.83;;;8.73;;
2205;SDS011;1109;48.020;11.478;2022-07-10T06:00:06;10.07;;;8.80;;
2205;SDS011;1109;48.020;11.478;2022-07-10T06:02:34;10.23;;;9.20;;
2205;SDS011;1109;48.020;11.478;2022-07-10T06:05:01;9.03;;;8.07;;
2205;SDS011;1109;48.020;11.478;2022-07-10T06:07:29;8.17;;;7.37;;
2205;SDS011;1109;48.020;11.478;2022-07-10T06:09:55;10.63;;;8.03;;
2205;SDS011;1109;48.020;11.478;2022-07-10T06:12:22;8.23;;;7.10;;
2205;SDS011;1109;48.020;11.478;2022-07-10T06:14:49;9.60;;;6.73;;
2205;SDS011;1109;48.020;11.478;2022-07-10T06:17:16;8.80;;;6.43;;
2205;SDS011;1109;48.020;11.478;2022-07-10T06:19:46;16.60;;;8.33;;
2205;SDS011;1109;48.020;11.478;2022-07-10T06:22:15;6.80;;;6.10;;
2205;SDS011;1109;48.020;11.478;2022-07-10T06:25:02;11.37;;;9.13;;
2205;SDS011;1109;48.020;11.478;2022-07-10T06:27:31;8.70;;;7.80;;
2205;SDS011;1109;48.020;11.478;2022-07-10T06:30:00;10.70;;;8.63;;
2205;SDS011;1109;48.020;11.478;2022-07-10T06:32:27;10.10;;;9.00;;
2205;SDS011;1109;48.020;11.478;2022-07-10T06:34:54;9.93;;;8.93;;
2205;SDS011;1109;48.020;11.478;2022-07-10T06:37:21;6.03;;;5.43;;
2205;SDS011;1109;48.020;11.478;2022-07-10T06:39:48;5.57;;;4.70;;
2205;SDS011;1109;48.020;11.478;2022-07-10T06:42:15;7.00;;;5.80;;
2205;SDS011;1109;48.020;11.478;2022-07-10T06:44:46;5.67;;;5.07;;
2205;SDS011;1109;48.020;11.478;2022-07-10T06:47:15;5.73;;;5.10;;
2205;SDS011;1109;48.020;11.478;2022-07-10T06:50:05;7.47;;;6.80;;
2205;SDS011;1109;48.020;11.478;2022-07-10T06:52:34;5.80;;;4.80;;
2205;SDS011;1109;48.020;11.478;2022-07-10T06:55:02;5.53;;;4.90;;
2205;SDS011;1109;48.020;11.478;2022-07-10T06:57:30;5.43;;;4.93;;
2205;SDS011;1109;48.020;11.478;2022-07-10T06:59:57;4.43;;;4.00;;
2205;SDS011;1109;48.020;11.478;2022-07-10T07:02:24;5.63;;;4.57;;
2205;SDS011;1109;48.020;11.478;2022-07-10T07:04:52;7.00;;;4.90;;
2205;SDS011;1109;48.020;11.478;2022-07-10T07:07:18;6.73;;;5.73;;
2205;SDS011;1109;48.020;11.478;2022-07-10T07:09:50;3.97;;;3.70;;
2205;SDS011;1109;48.020;11.478;2022-07-10T07:12:19;11.60;;;10.60;;
2205;SDS011;1109;48.020;11.478;2022-07-10T07:14:46;10.00;;;9.20;;
2205;SDS011;1109;48.020;11.478;2022-07-10T07:17:17;10.20;;;9.40;;
2205;SDS011;1109;48.020;11.478;2022-07-10T07:20:00;10.77;;;9.97;;
2205;SDS011;1109;48.020;11.478;2022-07-10T07:23:05;12.27;;;10.97;;
2205;SDS011;1109;48.020;11.478;2022-07-10T07:25:40;12.77;;;11.60;;
2205;SDS011;1109;48.020;11.478;2022-07-10T07:28:16;12.53;;;11.33;;
2205;SDS011;1109;48.020;11.478;2022-07-10T07:30:46;13.13;;;12.00;;
2205;SDS011;1109;48.020;11.478;2022-07-10T07:33:18;13.30;;;12.10;;
2205;SDS011;1109;48.020;11.478;2022-07-10T07:35:45;11.83;;;10.83;;
2205;SDS011;1109;48.020;11.478;2022-07-10T07:38:12;11.10;;;10.20;;
2205;SDS011;1109;48.020;11.478;2022-07-10T07:40:39;12.90;;;11.87;;
2205;SDS011;1109;48.020;11.478;2022-07-10T07:43:07;11.23;;;10.43;;
2205;SDS011;1109;48.020;11.478;2022-07-10T07:45:34;12.90;;;9.83;;
2205;SDS011;1109;48.020;11.478;2022-07-10T07:48:01;13.27;;;12.13;;
2205;SDS011;1109;48.020;11.478;2022-07-10T07:50:29;12.30;;;11.20;;
2205;SDS011;1109;48.020;11.478;2022-07-10T07:53:01;13.40;;;12.30;;
2205;SDS011;1109;48.020;11.478;2022-07-10T07:55:30;12.80;;;11.63;;
2205;SDS011;1109;48.020;11.478;2022-07-10T07:57:57;11.90;;;10.80;;
2205;SDS011;1109;48.020;11.478;2022-07-10T08:00:25;11.83;;;10.83;;
2205;SDS011;1109;48.020;11.478;2022-07-10T08:02:54;11.90;;;10.80;;
2205;SDS011;1109;48.020;11.478;2022-07-10T08:05:22;11.20;;;10.20;;
2205;SDS011;1109;48.020;11.478;2022-07-10T08:07:59;11.60;;;10.40;;
2205;SDS011;1109;48.020;11.478;2022-07-10T08:10:30;11.47;;;10.50;;
2205;SDS011;1109;48.020;11.478;2022-07-10T08:12:58;10.80;;;9.80;;
2205;SDS011;1109;48.020;11.478;2022-07-10T08:15:25;10.60;;;9.80;;
2205;SDS011;1109;48.020;11.478;2022-07-10T08:17:53;10.90;;;9.70;;
2205;SDS011;1109;48.020;11.478;2022-07-10T08:20:22;8.70;;;8.00;;
2205;SDS011;1109;48.020;11.478;2022-07-10T08:22:50;9.07;;;8.17;;
2205;SDS011;1109;48.020;11.478;2022-07-10T08:25:25;9.47;;;8.17;;
2205;SDS011;1109;48.020;11.478;2022-07-10T08:27:53;6.40;;;5.90;;
2205;SDS011;1109;48.020;11.478;2022-07-10T08:30:20;9.77;;;6.47;;
2205;SDS011;1109;48.020;11.478;2022-07-10T08:32:47;6.67;;;6.13;;
2205;SDS011;1109;48.020;11.478;2022-07-10T08:35:15;5.30;;;4.80;;
2205;SDS011;1109;48.020;11.478;2022-07-10T08:37:43;5.80;;;5.30;;
2205;SDS011;1109;48.020;11.478;2022-07-10T08:40:12;6.40;;;5.90;;
2205;SDS011;1109;48.020;11.478;2022-07-10T08:42:40;4.90;;;4.50;;
2205;SDS011;1109;48.020;11.478;2022-07-10T08:45:10;5.13;;;4.63;;
2205;SDS011;1109;48.020;11.478;2022-07-10T08:47:38;5.90;;;5.40;;
2205;SDS011;1109;48.020;11.478;2022-07-10T08:50:17;6.70;;;4.40;;
2205;SDS011;1109;48.020;11.478;2022-07-10T08:52:55;4.47;;;4.07;;
2205;SDS011;1109;48.020;11.478;2022-07-10T08:55:36;4.93;;;4.00;;
2205;SDS011;1109;48.020;11.478;2022-07-10T08:58:03;4.57;;;4.17;;
2205;SDS011;1109;48.020;11.478;2022-07-10T09:00:33;4.20;;;3.90;;
2205;SDS011;1109;48.020;11.478;2022-07-10T09:03:00;5.13;;;4.37;;
2205;SDS011;1109;48.020;11.478;2022-07-10T09:05:27;4.17;;;3.27;;
2205;SDS011;1109;48.020;11.478;2022-07-10T09:07:54;4.30;;;3.70;;
2205;SDS011;1109;48.020;11.478;2022-07-10T09:10:26;3.83;;;3.57;;
2205;SDS011;1109;48.020;11.478;2022-07-10T09:12:58;4.20;;;3.73;;
2205;SDS011;1109;48.020;11.478;2022-07-10T09:15:29;6.07;;;4.57;;
2205;SDS011;1109;48.020;11.478;2022-07-10T09:17:59;4.60;;;4.30;;
2205;SDS011;1109;48.020;11.478;2022-07-10T09:20:35;4.33;;;3.17;;
2205;SDS011;1109;48.020;11.478;2022-07-10T09:25:51;4.30;;;4.00;;
2205;SDS011;1109;48.020;11.478;2022-07-10T09:28:19;3.80;;;3.50;;
2205;SDS011;1109;48.020;11.478;2022-07-10T09:30:47;4.23;;;3.30;;
2205;SDS011;1109;48.020;11.478;2022-07-10T09:46:26;2.73;;;2.53;;
2205;SDS011;1109;48.020;11.478;2022-07-10T09:49:00;3.07;;;2.87;;
2205;SDS011;1109;48.020;11.478;2022-07-10T09:51:38;3.13;;;2.93;;
2205;SDS011;1109;48.020;11.478;2022-07-10T09:54:15;4.00;;;3.27;;
2205;SDS011;1109;48.020;11.478;2022-07-10T09:56:43;3.33;;;2.27;;
2205;SDS011;1109;48.020;11.478;2022-07-10T09:59:15;3.30;;;3.00;;
2205;SDS011;1109;48.020;11.478;2022-07-10T10:01:47;4.53;;;3.03;;
2205;SDS011;1109;48.020;11.478;2022-07-10T10:04:18;3.50;;;3.20;;
2205;SDS011;1109;48.020;11.478;2022-07-10T10:06:50;2.93;;;2.30;;
2205;SDS011;1109;48.020;11.478;2022-07-10T10:09:33;3.03;;;2.87;;
2205;SDS011;1109;48.020;11.478;2022-07-10T10:12:10;2.27;;;2.07;;
2205;SDS011;1109;48.020;11.478;2022-07-10T10:14:42;3.00;;;2.70;;
2205;SDS011;1109;48.020;11.478;2022-07-10T10:17:10;3.10;;;2.80;;
2205;SDS011;1109;48.020;11.478;2022-07-10T10:19:38;2.90;;;1.70;;
2205;SDS011;1109;48.020;11.478;2022-07-10T10:22:25;2.73;;;2.30;;
2205;SDS011;1109;48.020;11.478;2022-07-10T10:24:53;2.53;;;2.27;;
2205;SDS011;1109;48.020;11.478;2022-07-10T10:27:21;4.00;;;2.10;;
2205;SDS011;1109;48.020;11.478;2022-07-10T10:29:49;2.33;;;2.10;;
2205;SDS011;1109;48.020;11.478;2022-07-10T10:32:18;5.07;;;2.23;;
2205;SDS011;1109;48.020;11.478;2022-07-10T10:34:45;2.80;;;2.20;;
2205;SDS011;1109;48.020;11.478;2022-07-10T10:37:56;2.67;;;2.47;;
2205;SDS011;1109;48.020;11.478;2022-07-10T10:40:34;3.00;;;2.33;;
2205;SDS011;1109;48.020;11.478;2022-07-10T10:43:20;5.20;;;3.27;;
2205;SDS011;1109;48.020;11.478;2022-07-10T10:45:52;3.80;;;2.60;;
2205;SDS011;1109;48.020;11.478;2022-07-10T10:48:19;7.93;;;2.50;;
2205;SDS011;1109;48.020;11.478;2022-07-10T10:51:05;3.20;;;2.30;;
2205;SDS011;1109;48.020;11.478;2022-07-10T10:53:32;2.43;;;2.23;;
2205;SDS011;1109;48.020;11.478;2022-07-10T10:58:37;2.90;;;2.60;;
2205;SDS011;1109;48.020;11.478;2022-07-10T11:06:48;2.97;;;2.67;;
2205;SDS011;1109;48.020;11.478;2022-07-10T11:09:26;2.67;;;2.47;;
2205;SDS011;1109;48.020;11.478;2022-07-10T11:14:28;2.50;;;2.30;;
2205;SDS011;1109;48.020;11.478;2022-07-10T11:16:55;3.00;;;2.67;;
2205;SDS011;1109;48.020;11.478;2022-07-10T11:19:23;2.00;;;1.90;;
2205;SDS011;1109;48.020;11.478;2022-07-10T11:21:56;3.00;;;2.50;;
2205;SDS011;1109;48.020;11.478;2022-07-10T11:24:40;2.30;;;2.10;;
2205;SDS011;1109;48.020;11.478;2022-07-10T11:27:18;2.30;;;2.00;;
2205;SDS011;1109;48.020;11.478;2022-07-10T11:30:14;3.10;;;2.80;;
2205;SDS011;1109;48.020;11.478;2022-07-10T11:32:41;2.90;;;1.93;;
2205;SDS011;1109;48.020;11.478;2022-07-10T11:35:11;2.83;;;2.40;;
2205;SDS011;1109;48.020;11.478;2022-07-10T11:37:51;2.00;;;1.80;;
2205;SDS011;1109;48.020;11.478;2022-07-10T11:40:19;2.67;;;2.47;;
2205;SDS011;1109;48.020;11.478;2022-07-10T11:42:47;2.53;;;2.33;;
2205;SDS011;1109;48.020;11.478;2022-07-10T11:45:30;2.30;;;2.10;;
2205;SDS011;1109;48.020;11.478;2022-07-10T11:47:59;2.20;;;2.10;;
2205;SDS011;1109;48.020;11.478;2022-07-10T11:50:26;2.70;;;2.50;;
2205;SDS011;1109;48.020;11.478;2022-07-10T11:52:54;2.53;;;2.30;;
2205;SDS011;1109;48.020;11.478;2022-07-10T11:55:22;1.73;;;1.63;;
2205;SDS011;1109;48.020;11.478;2022-07-10T11:57:50;2.97;;;2.33;;
2205;SDS011;1109;48.020;11.478;2022-07-10T12:00:21;2.97;;;2.20;;
2205;SDS011;1109;48.020;11.478;2022-07-10T12:02:52;2.57;;;1.93;;
2205;SDS011;1109;48.020;11.478;2022-07-10T12:05:36;3.17;;;1.90;;
2205;SDS011;1109;48.020;11.478;2022-07-10T12:08:05;2.70;;;2.00;;
2205;SDS011;1109;48.020;11.478;2022-07-10T12:10:33;3.53;;;2.10;;
2205;SDS011;1109;48.020;11.478;2022-07-10T12:15:43;1999.90;;;999.90;;
2205;SDS011;1109;48.020;11.478;2022-07-10T12:18:18;1999.90;;;999.90;;
2205;SDS011;1109;48.020;11.478;2022-07-10T12:20:46;1999.90;;;999.90;;
2205;SDS011;1109;48.020;11.478;2022-07-10T12:23:15;1999.90;;;999.90;;
2205;SDS011;1109;48.020;11.478;2022-07-10T12:25:43;1999.90;;;999.90;;
2205;SDS011;1109;48.020;11.478;2022-07-10T12:28:11;1999.90;;;999.90;;
2205;SDS011;1109;48.020;11.478;2022-07-10T12:30:42;1999.90;;;999.90;;
2205;SDS011;1109;48.020;11.478;2022-07-10T12:33:14;1999.90;;;999.90;;
2205;SDS011;1109;48.020;11.478;2022-07-10T12:35:48;1999.90;;;999.90;;
2205;SDS011;1109;48.020;11.478;2022-07-10T12:38:23;130.47;;;18.50;;
2205;SDS011;1109;48.020;11.478;2022-07-10T12:41:05;134.30;;;47.70;;
2205;SDS011;1109;48.020;11.478;2022-07-10T12:43:34;39.80;;;2.30;;
2205;SDS011;1109;48.020;11.478;2022-07-10T12:46:11;512.37;;;255.70;;
2205;SDS011;1109;48.020;11.478;2022-07-10T12:48:43;344.07;;;308.87;;
2205;SDS011;1109;48.020;11.478;2022-07-10T12:51:46;67.43;;;9.50;;
2205;SDS011;1109;48.020;11.478;2022-07-10T12:54:36;66.47;;;11.60;;
2205;SDS011;1109;48.020;11.478;2022-07-10T12:57:04;59.03;;;5.50;;
2205;SDS011;1109;48.020;11.478;2022-07-10T12:59:36;64.10;;;9.07;;
2205;SDS011;1109;48.020;11.478;2022-07-10T13:02:13;86.50;;;36.20;;
2205;SDS011;1109;48.020;11.478;2022-07-10T13:04:56;68.43;;;11.50;;
2205;SDS011;1109;48.020;11.478;2022-07-10T13:09:58;1999.90;;;999.90;;
2205;SDS011;1109;48.020;11.478;2022-07-10T13:12:30;52.73;;;3.13;;
2205;SDS011;1109;48.020;11.478;2022-07-10T13:15:00;58.90;;;10.87;;
2205;SDS011;1109;48.020;11.478;2022-07-10T13:17:29;1999.90;;;999.90;;
2205;SDS011;1109;48.020;11.478;2022-07-10T13:19:56;1999.90;;;999.90;;
2205;SDS011;1109;48.020;11.478;2022-07-10T13:22:23;1999.90;;;999.90;;
2205;SDS011;1109;48.020;11.478;2022-07-10T13:24:50;1999.90;;;999.90;;
2205;SDS011;1109;48.020;11.478;2022-07-10T13:27:17;1999.90;;;999.90;;
2205;SDS011;1109;48.020;11.478;2022-07-10T13:29:44;1999.90;;;999.90;;
2205;SDS011;1109;48.020;11.478;2022-07-10T13:32:11;1999.90;;;999.90;;
2205;SDS011;1109;48.020;11.478;2022-07-10T13:34:37;1999.90;;;999.90;;
2205;SDS011;1109;48.020;11.478;2022-07-10T13:37:04;1999.90;;;999.90;;
2205;SDS011;1109;48.020;11.478;2022-07-10T13:39:31;1999.90;;;999.90;;
2205;SDS011;1109;48.020;11.478;2022-07-10T13:41:58;1999.90;;;999.90;;
2205;SDS011;1109;48.020;11.478;2022-07-10T13:44:25;1999.90;;;999.90;;
2205;SDS011;1109;48.020;11.478;2022-07-10T13:46:52;1999.90;;;999.90;;
2205;SDS011;1109;48.020;11.478;2022-07-10T13:49:19;1999.90;;;999.90;;
2205;SDS011;1109;48.020;11.478;2022-07-10T13:51:53;1999.90;;;999.90;;
2205;SDS011;1109;48.020;11.478;2022-07-10T13:54:20;1999.90;;;999.90;;
2205;SDS011;1109;48.020;11.478;2022-07-10T13:56:47;1999.90;;;999.90;;
2205;SDS011;1109;48.020;11.478;2022-07-10T13:59:14;1999.90;;;999.90;;
2205;SDS011;1109;48.020;11.478;2022-07-10T14:01:41;1999.90;;;999.90;;
2205;SDS011;1109;48.020;11.478;2022-07-10T14:04:08;87.10;;;32.40;;
2205;SDS011;1109;48.020;11.478;2022-07-10T14:06:35;1999.90;;;999.90;;
2205;SDS011;1109;48.020;11.478;2022-07-10T14:09:02;1999.90;;;999.90;;
2205;SDS011;1109;48.020;11.478;2022-07-10T14:11:29;1999.90;;;999.90;;
2205;SDS011;1109;48.020;11.478;2022-07-10T14:13:56;1999.90;;;999.90;;
2205;SDS011;1109;48.020;11.478;2022-07-10T14:16:23;1999.90;;;999.90;;
2205;SDS011;1109;48.020;11.478;2022-07-10T14:18:50;1999.90;;;999.90;;
2205;SDS011;1109;48.020;11.478;2022-07-10T14:21:17;651.00;;;88.40;;
2205;SDS011;1109;48.020;11.478;2022-07-10T14:23:44;3.50;;;1.70;;
2205;SDS011;1109;48.020;11.478;2022-07-10T14:26:11;3.50;;;1.57;;
2205;SDS011;1109;48.020;11.478;2022-07-10T14:28:39;3.53;;;1.33;;
2205;SDS011;1109;48.020;11.478;2022-07-10T14:31:06;3.23;;;1.90;;
2205;SDS011;1109;48.020;11.478;2022-07-10T14:33:34;3.00;;;1.30;;
2205;SDS011;1109;48.020;11.478;2022-07-10T14:36:04;2.57;;;1.57;;
2205;SDS011;1109;48.020;11.478;2022-07-10T14:38:32;1.93;;;1.27;;
2205;SDS011;1109;48.020;11.478;2022-07-10T14:41:00;2.73;;;1.27;;
2205;SDS011;1109;48.020;11.478;2022-07-10T14:43:27;2.43;;;1.33;;
2205;SDS011;1109;48.020;11.478;2022-07-10T14:45:54;1.90;;;1.40;;
2205;SDS011;1109;48.020;11.478;2022-07-10T14:48:29;1.90;;;1.30;;
2205;SDS011;1109;48.020;11.478;2022-07-10T14:50:57;3.50;;;1.43;;
2205;SDS011;1109;48.020;11.478;2022-07-10T14:53:24;3.03;;;1.40;;
2205;SDS011;1109;48.020;11.478;2022-07-10T14:55:51;2.50;;;1.47;;
2205;SDS011;1109;48.020;11.478;2022-07-10T14:58:18;1.60;;;1.20;;
2205;SDS011;1109;48.020;11.478;2022-07-10T15:00:45;1.47;;;1.37;;
2205;SDS011;1109;48.020;11.478;2022-07-10T15:03:12;1.27;;;1.17;;
2205;SDS011;1109;48.020;11.478;2022-07-10T15:05:38;2.10;;;1.43;;
2205;SDS011;1109;48.020;11.478;2022-07-10T15:08:06;2.70;;;1.40;;
2205;SDS011;1109;48.020;11.478;2022-07-10T15:10:33;3.30;;;1.73;;
2205;SDS011;1109;48.020;11.478;2022-07-10T15:13:00;4.63;;;1.83;;
2205;SDS011;1109;48.020;11.478;2022-07-10T15:15:33;1.50;;;1.20;;
2205;SDS011;1109;48.020;11.478;2022-07-10T15:18:01;2.33;;;1.20;;
2205;SDS011;1109;48.020;11.478;2022-07-10T15:20:27;1.80;;;1.23;;
2205;SDS011;1109;48.020;11.478;2022-07-10T15:22:55;1.90;;;1.40;;
2205;SDS011;1109;48.020;11.478;2022-07-10T15:25:22;2.03;;;1.40;;
2205;SDS011;1109;48.020;11.478;2022-07-10T15:27:48;3.60;;;1.20;;